Thunder radar more information blitzortung!


Radar de pluja more information rain snow radar


Visita la nostra xarxa de llocs de meteo:

Template documentation
and downloads

And another site



No particular awareness of the weather is required.    There are no Weather-warnings

Pagina Historial Weather Underground text

Diari Resum Juny 9, 2017 Unitats:  Mètric    Imperial   Tant
« Previous Dia
SegĂźent Dia »
Diari Setmana Mensual Anual Personalitzada
  Maxima: Minima: Media:
Temperatura: -17.8 °C -8.7 °C -4.8 °C
Punt de rosada: -17.8 °C -10.8 °C -9.3 °C
Humitat: Humidity % 42 % 63 %
Wind Speed: 0 km/h 0 km/h 9 km/h
RĂ fegues de vent: 0 km/h - -
Vent:- - SSE
Pression baro: 0 hPa 34327.3 hPa -
Precipitacions: 0 mm    
Historical Graphs
 
 
Dades de taula per Juny 9, 2017
Temps Temperatura Punt de rosada Pression baro Vent Wind Speed RĂ fegues de vent Humitat Rainfall Rate (Hourly)
-17.8 °C -17.8 °C 0 hPa Calm     Humidity % 0 mm
00:01 -7.6 °C -9.7 °C 34395 hPa SW 9 km/h 9 km/h 78 % 0 mm
00:05 -8.3 °C -10 °C 34395 hPa WSW 5.1 km/h 5.1 km/h 82 % 0 mm
00:06 -7.6 °C -9.6 °C 34395 hPa SW 6 km/h 7.6 km/h 79 % 0 mm
00:11 -7.6 °C -9.6 °C 34395 hPa SW 6.3 km/h 6.3 km/h 79 % 0 mm
00:15 -8.3 °C -10.1 °C 34395 hPa Calm   7.7 km/h 82 % 0 mm
00:16 -7.6 °C -9.6 °C 34395 hPa WSW 6 km/h 6 km/h 79 % 0 mm
00:21 -7.6 °C -9.6 °C 34395 hPa West 6 km/h 6 km/h 79 % 0 mm
00:25 -8.2 °C -9.9 °C 34395 hPa WNW 5.1 km/h 10.3 km/h 82 % 0 mm
00:26 -7.6 °C -9.5 °C 34395 hPa WSW 6 km/h 6 km/h 80 % 0 mm
00:35 -8.2 °C -10 °C 34395 hPa SE 5.1 km/h 10.3 km/h 81 % 0 mm
00:45 -8.3 °C -10 °C 34395 hPa South 5.1 km/h 10.3 km/h 82 % 0 mm
00:55 -8.4 °C -9.9 °C 34395 hPa SE 2.6 km/h 5.1 km/h 84 % 0 mm
01:05 -8.4 °C -9.8 °C 34361.1 hPa ESE 5.1 km/h 5.1 km/h 85 % 0 mm
01:15 -8.5 °C -10 °C 34361.1 hPa East 7.7 km/h 15.6 km/h 84 % 0 mm
01:25 -8.5 °C -9.8 °C 34395 hPa NE 2.6 km/h 10.3 km/h 86 % 0 mm
01:45 -8.5 °C -9.8 °C 34361.1 hPa ENE 5.1 km/h 10.3 km/h 86 % 0 mm
01:55 -8.5 °C -9.6 °C 34428.8 hPa Calm   7.7 km/h 88 % 0 mm
02:05 -8.5 °C -9.6 °C 34395 hPa South 2.6 km/h 5.1 km/h 88 % 0 mm
02:15 -8.3 °C -9.6 °C 34395 hPa North 5.1 km/h 12.9 km/h 87 % 0 mm
02:25 -8.4 °C -9.4 °C 34462.7 hPa NW 5.1 km/h 5.1 km/h 89 % 0 mm
02:35 -8.4 °C -9.4 °C 34395 hPa SSW 5.1 km/h 7.7 km/h 89 % 0 mm
02:45 -8.4 °C -9.6 °C 34395 hPa SSW 7.7 km/h 10.3 km/h 88 % 0 mm
02:55 -8.5 °C -9.6 °C 34428.8 hPa SW 5.1 km/h 10.3 km/h 88 % 0 mm
03:05 -8.5 °C -9.4 °C 34428.8 hPa WSW 5.1 km/h 7.7 km/h 90 % 0 mm
03:15 -8.4 °C -9.3 °C 34428.8 hPa North 7.7 km/h 7.7 km/h 90 % 0 mm
03:25 -8.4 °C -9.3 °C 34462.7 hPa NNE 5.1 km/h 7.7 km/h 90 % 0 mm
03:35 -8.3 °C -9.3 °C 34462.7 hPa NE 2.6 km/h 5.1 km/h 90 % 0 mm
03:45 -8.1 °C -9.1 °C 34462.7 hPa NNE 5.1 km/h 7.7 km/h 90 % 0 mm
03:55 -7.8 °C -8.8 °C 34462.7 hPa ENE 2.6 km/h 5.1 km/h 90 % 0 mm
04:05 -7.8 °C -8.8 °C 34462.7 hPa SSE 2.6 km/h 7.7 km/h 89 % 0 mm
04:15 -7.8 °C -8.8 °C 34462.7 hPa SW 5.1 km/h 7.7 km/h 89 % 0 mm
04:25 -7.3 °C -8.4 °C 34428.8 hPa Calm   5.1 km/h 89 % 0 mm
04:35 -6.9 °C -8 °C 34462.7 hPa SSW 2.6 km/h 7.7 km/h 88 % 0 mm
04:45 -6.8 °C -8.2 °C 34462.7 hPa SSW 2.6 km/h 5.1 km/h 85 % 0 mm
09:47 -6.7 °C -8.1 °C 34462.7 hPa SSE 6 km/h 6 km/h 85 % 0 mm
09:52 -6.6 °C -8.2 °C 34462.7 hPa Calm     84 % 0 mm
09:57 -6.5 °C -8.2 °C 34462.7 hPa South 3.1 km/h   83 % 0 mm
10:02 -6.2 °C -7.9 °C 34462.7 hPa South 9 km/h 9 km/h 83 % 0 mm
10:03 -6.3 °C -8.1 °C 34462.7 hPa SSE 6.8 km/h 6.8 km/h 82 % 0 mm
10:08 -6.2 °C -8.1 °C 34462.7 hPa ESE 6 km/h 6 km/h 81 % 0 mm
10:13 -5.9 °C -8 °C 34462.7 hPa ENE 3.1 km/h   79 % 0 mm
10:18 -5.6 °C -7.8 °C 34462.7 hPa SW 6 km/h 6 km/h 78 % 0 mm
10:23 -5.5 °C -7.8 °C 34462.7 hPa SSW 6 km/h 6 km/h 77 % 0 mm
10:28 -5.5 °C -8.1 °C 34462.7 hPa East 9 km/h 9 km/h 75 % 0 mm
10:33 -5.3 °C -7.9 °C 34462.7 hPa WSW 6 km/h 6 km/h 75 % 0 mm
10:38 -5.1 °C -7.7 °C 34462.7 hPa ESE 6 km/h 6 km/h 75 % 0 mm
10:43 -4.8 °C -7.7 °C 34462.7 hPa SSW 11.9 km/h 11.9 km/h 72 % 0 mm
10:48 -4.6 °C -7.6 °C 34462.7 hPa ESE 6 km/h 6 km/h 72 % 0 mm
10:53 -4.6 °C -7.7 °C 34462.7 hPa ESE 7.6 km/h 7.6 km/h 71 % 0 mm
10:59 -4.6 °C -7.8 °C 34462.7 hPa East 6 km/h 6 km/h 70 % 0 mm
11:04 -4.4 °C -7.8 °C 34462.7 hPa SW 4.2 km/h 4.2 km/h 69 % 0 mm
11:09 -4.2 °C -7.7 °C 34462.7 hPa ENE 9.3 km/h 9.3 km/h 68 % 0 mm
11:14 -4.5 °C -8.1 °C 34462.7 hPa South 15 km/h 15 km/h 67 % 0 mm
11:19 -4.1 °C -7.9 °C 34462.7 hPa SE 6 km/h 6 km/h 65 % 0 mm
11:24 -3.7 °C -7.8 °C 34462.7 hPa SE 8.5 km/h 8.5 km/h 64 % 0 mm
11:29 -3.9 °C -7.8 °C 34462.7 hPa SW 11.9 km/h 11.9 km/h 65 % 0 mm
11:34 -3.9 °C -8.4 °C 34462.7 hPa SW 11.9 km/h 11.9 km/h 61 % 0 mm
11:37 -3.7 °C -8.3 °C 34462.7 hPa SW 6 km/h 6 km/h 60 % 0 mm
11:42 -3.6 °C -8.2 °C 34462.7 hPa SSW 9.8 km/h 9.8 km/h 60 % 0 mm
11:47 -3.6 °C -8.2 °C 34462.7 hPa SSW 17.9 km/h 17.9 km/h 60 % 0 mm
11:52 -3.6 °C -8.5 °C 34462.7 hPa SW 15 km/h 15 km/h 58 % 0 mm
11:57 -3.5 °C -8.6 °C 34462.7 hPa SSW 15 km/h 15 km/h 57 % 0 mm
12:02 -3.7 °C -8.9 °C 34428.8 hPa SSW 15 km/h 15 km/h 56 % 0 mm
12:07 -3.7 °C -8.9 °C 34428.8 hPa SW 17.9 km/h 17.9 km/h 56 % 0 mm
12:12 -3.7 °C -8.9 °C 34428.8 hPa SW 17.9 km/h 17.9 km/h 56 % 0 mm
12:17 -3.6 °C -8.9 °C 34462.7 hPa SSW 15 km/h 15 km/h 55 % 0 mm
12:22 -3.4 °C -8.8 °C 34462.7 hPa SW 9 km/h 9 km/h 55 % 0 mm
12:27 -3.1 °C -8.5 °C 34462.7 hPa SSW 9 km/h 9 km/h 55 % 0 mm
12:32 -3.1 °C -8.5 °C 34395 hPa SW 9 km/h 9 km/h 55 % 0 mm
12:37 -2.7 °C -8.3 °C 34395 hPa WSW 11.9 km/h 11.9 km/h 54 % 0 mm
12:42 -2.3 °C -8.2 °C 34395 hPa SSW 4.2 km/h 4.2 km/h 53 % 0 mm
12:47 -2.7 °C -8.6 °C 34395 hPa West 15 km/h 15 km/h 52 % 0 mm
12:52 -2.5 °C -8.4 °C 34395 hPa SW 8 km/h 8 km/h 52 % 0 mm
12:57 -2.5 °C -8.7 °C 34395 hPa SW 9 km/h 9 km/h 51 % 0 mm
13:02 -2.3 °C -8.5 °C 34428.8 hPa SW 11.9 km/h 11.9 km/h 51 % 0 mm
13:07 -2.3 °C -8.6 °C 34428.8 hPa WSW 15 km/h 15 km/h 50 % 0 mm
13:12 -2.2 °C -8.5 °C 34428.8 hPa SW 11.9 km/h 11.9 km/h 50 % 0 mm
13:17 -2.2 °C -8.7 °C 34395 hPa West 6 km/h 6 km/h 49 % 0 mm
13:22 -2.2 °C -8.9 °C 34395 hPa SSW 15 km/h 15 km/h 48 % 0 mm
13:27 -2.2 °C -8.8 °C 34395 hPa ENE 9 km/h 9 km/h 48 % 0 mm
13:32 -2.1 °C -8.9 °C 34395 hPa SW 11.9 km/h 11.9 km/h 47 % 0 mm
13:37 -2.1 °C -8.8 °C 34395 hPa SW 9 km/h 9 km/h 48 % 0 mm
13:42 -1.7 °C -8.7 °C 34395 hPa WSW 6.3 km/h 6.3 km/h 47 % 0 mm
13:47 -1.8 °C -8.7 °C 34395 hPa West 15 km/h 15 km/h 47 % 0 mm
13:52 -1.4 °C -8.3 °C 34395 hPa SW 14 km/h 14 km/h 47 % 0 mm
13:57 -2.1 °C -9.1 °C 34395 hPa South 11.9 km/h 11.9 km/h 46 % 0 mm
14:02 -2.1 °C -8.9 °C 34361.1 hPa WSW 11.9 km/h 11.9 km/h 47 % 0 mm
14:07 -2.1 °C -8.8 °C 34361.1 hPa ESE 15.3 km/h 15.3 km/h 48 % 0 mm
14:12 -2.4 °C -8.9 °C 34361.1 hPa NNE 11.9 km/h 11.9 km/h 49 % 0 mm
14:17 -2.2 °C -8.7 °C 34395 hPa ESE 9.8 km/h 9.8 km/h 49 % 0 mm
14:22 -1.8 °C -8.4 °C 34395 hPa South 9.8 km/h 9.8 km/h 49 % 0 mm
14:23 -1.8 °C -8.4 °C 34395 hPa South 12.2 km/h 12.2 km/h 49 % 0 mm
14:28 -1.7 °C -8.4 °C 34395 hPa SSW 9 km/h 9 km/h 48 % 0 mm
14:33 -1.3 °C -8.1 °C 34395 hPa SE 9 km/h 9 km/h 48 % 0 mm
14:38 -1.2 °C -7.9 °C 34395 hPa West 9 km/h 9 km/h 48 % 0 mm
14:43 -1.2 °C -8.1 °C 34395 hPa SE 10.3 km/h 10.3 km/h 47 % 0 mm
14:48 -1.1 °C -8.2 °C 34395 hPa West 14 km/h 14 km/h 46 % 0 mm
14:53 -1.2 °C -8.4 °C 34395 hPa South 17.9 km/h 17.9 km/h 46 % 0 mm
14:58 -1.4 °C -8.9 °C 34395 hPa ESE 11.9 km/h 11.9 km/h 44 % 0 mm
15:03 -2.1 °C -8.7 °C 34395 hPa ESE 15 km/h 15 km/h 49 % 0 mm
15:08 -2.2 °C -8.6 °C 34395 hPa SE 15 km/h 15 km/h 50 % 0 mm
15:13 -1.9 °C -8.4 °C 34395 hPa SSE 32.8 km/h 32.8 km/h 49 % 0 mm
15:18 -1.6 °C -8.7 °C 34395 hPa South 6 km/h 6 km/h 46 % 0 mm
15:23 -1.3 °C -8.7 °C 34395 hPa South 15 km/h 15 km/h 45 % 0 mm
15:28 -1.6 °C -8.7 °C 34395 hPa NNE 15 km/h 15 km/h 46 % 0 mm
15:33 -1.7 °C -8.8 °C 34395 hPa West 9 km/h 9 km/h 46 % 0 mm
15:38 -1.4 °C -8.9 °C 34395 hPa SE 9 km/h 9 km/h 44 % 0 mm
15:43 -1.4 °C -9.3 °C 34395 hPa SSE 9 km/h 9 km/h 42 % 0 mm
15:48 -1.4 °C -9.1 °C 34395 hPa SSE 14 km/h 14 km/h 43 % 0 mm
15:53 -1.8 °C -8.7 °C 34395 hPa ESE 15 km/h 15 km/h 47 % 0 mm
15:58 -1.9 °C -8.8 °C 34395 hPa SSW 15 km/h 15 km/h 47 % 0 mm
16:03 -2.1 °C -8.8 °C 34395 hPa NNE 9 km/h 9 km/h 48 % 0 mm
16:08 -2.3 °C -8.8 °C 34395 hPa SE 23.8 km/h 23.8 km/h 49 % 0 mm
16:13 -2.1 °C -9 °C 34395 hPa NW 17.9 km/h 17.9 km/h 47 % 0 mm
16:18 -1.8 °C -8.9 °C 34395 hPa West 15.3 km/h 15.3 km/h 46 % 0 mm
16:23 -1.8 °C -9.1 °C 34395 hPa SE 9.8 km/h 9.8 km/h 45 % 0 mm
16:28 -2.2 °C -9.1 °C 34395 hPa SSE 20.9 km/h 20.9 km/h 47 % 0 mm
16:33 -2 °C -8.7 °C 34395 hPa SW 15 km/h 15 km/h 48 % 0 mm
16:38 -1.7 °C -8.8 °C 34395 hPa SSW 11.9 km/h 11.9 km/h 46 % 0 mm
16:43 -1.7 °C -9.2 °C 34395 hPa East 15 km/h 15 km/h 44 % 0 mm
16:48 -2.1 °C -9 °C 34395 hPa SSW 11.9 km/h 11.9 km/h 47 % 0 mm
16:53 -1.9 °C -8.8 °C 34395 hPa South 9 km/h 9 km/h 47 % 0 mm
16:58 -1.7 °C -8.9 °C 34395 hPa WSW 16.1 km/h 16.1 km/h 45 % 0 mm
16:59 -1.7 °C -8.9 °C 34395 hPa SW 15 km/h 15 km/h 45 % 0 mm
17:04 -1.6 °C -8.9 °C 34395 hPa SSW 23.8 km/h 23.8 km/h 45 % 0 mm
17:09 -1.8 °C -8.9 °C 34395 hPa WSW 14 km/h 14 km/h 46 % 0 mm
17:14 -2.1 °C -9.3 °C 34395 hPa SW 20.9 km/h 20.9 km/h 45 % 0 mm
17:19 -2.1 °C -9.3 °C 34395 hPa West 9 km/h 9 km/h 45 % 0 mm
17:24 -1.9 °C -9.2 °C 34395 hPa SSW 18.3 km/h 18.3 km/h 45 % 0 mm
17:29 -2.1 °C -9.3 °C 34395 hPa West 9.3 km/h 9.3 km/h 45 % 0 mm
17:34 -1.9 °C -9.2 °C 34395 hPa West 14.5 km/h 14.5 km/h 45 % 0 mm
17:39 -2.2 °C -9.4 °C 34395 hPa SSE 17.9 km/h 17.9 km/h 45 % 0 mm
17:44 -1.9 °C -9.2 °C 34395 hPa SW 15.3 km/h 15.3 km/h 45 % 0 mm
17:49 -2.2 °C -9.4 °C 34395 hPa SW 15 km/h 15 km/h 45 % 0 mm
17:54 -2.2 °C -9.4 °C 34395 hPa SW 20.9 km/h 20.9 km/h 45 % 0 mm
17:59 -2.2 °C -9.6 °C 34395 hPa SW 12.2 km/h 12.2 km/h 44 % 0 mm
18:04 -2 °C -9.3 °C 34361.1 hPa SW 9 km/h 9 km/h 45 % 0 mm
18:09 -1.9 °C -9.2 °C 34361.1 hPa WSW 12.2 km/h 12.2 km/h 45 % 0 mm
18:14 -2 °C -9.3 °C 34361.1 hPa SSE 15 km/h 15 km/h 45 % 0 mm
18:19 -2.1 °C -9.3 °C 34361.1 hPa West 11.9 km/h 11.9 km/h 45 % 0 mm
18:24 -2.1 °C -9.6 °C 34361.1 hPa West 9 km/h 9 km/h 44 % 0 mm
18:29 -2.2 °C -9.6 °C 34361.1 hPa WSW 9.3 km/h 9.3 km/h 44 % 0 mm
18:34 -2.3 °C -9.9 °C 34361.1 hPa North 7.6 km/h 7.6 km/h 43 % 0 mm
18:39 -2.4 °C -9.9 °C 34361.1 hPa South 9 km/h 9 km/h 44 % 0 mm
18:44 -2.6 °C -9.9 °C 34361.1 hPa WSW 11.9 km/h 11.9 km/h 44 % 0 mm
18:49 -3.3 °C -10.4 °C 34361.1 hPa SE 17.9 km/h 17.9 km/h 45 % 0 mm
18:54 -3.6 °C -10.7 °C 34361.1 hPa NE 26.9 km/h 26.9 km/h 45 % 0 mm
18:59 -3.7 °C -10.6 °C 34361.1 hPa ENE 20.9 km/h 20.9 km/h 46 % 0 mm
19:04 -3.8 °C -10.7 °C 34327.3 hPa NNW 9 km/h 9 km/h 46 % 0 mm
19:09 -3.8 °C -10.5 °C 34327.3 hPa South 11.9 km/h 11.9 km/h 47 % 0 mm
19:14 -3.5 °C -10.4 °C 34327.3 hPa SW 20.9 km/h 20.9 km/h 46 % 0 mm
19:16 -3.4 °C -10.3 °C 34327.3 hPa WSW 20.9 km/h 20.9 km/h 46 % 0 mm
19:20 -6.9 °C -9.6 °C 34496.6 hPa Calm   2.6 km/h 74 % 0 mm
19:21 -3.4 °C -10.4 °C 34361.1 hPa SW 11.9 km/h 11.9 km/h 46 % 0 mm
19:26 -3.4 °C -10.3 °C 34361.1 hPa SSW 9 km/h 9 km/h 46 % 0 mm
19:30 -7 °C -9.6 °C 34462.7 hPa Calm     74 % 0 mm
19:31 -3.3 °C -10.3 °C 34361.1 hPa South 9 km/h 9 km/h 46 % 0 mm
19:36 -3.3 °C -10.2 °C 34361.1 hPa WSW 6 km/h 6 km/h 46 % 0 mm
19:40 -7.1 °C -9.6 °C 34462.7 hPa Calm     75 % 0 mm
19:41 -3.4 °C -10.6 °C 34361.1 hPa South 11.9 km/h 11.9 km/h 45 % 0 mm
19:46 -3.7 °C -10.7 °C 34361.1 hPa WSW 6 km/h 6 km/h 46 % 0 mm
19:50 -7.1 °C -9.6 °C 34462.7 hPa Calm     75 % 0 mm
19:51 -3.7 °C -10.6 °C 34361.1 hPa SSW 9 km/h 9 km/h 46 % 0 mm
19:56 -3.6 °C -10.5 °C 34361.1 hPa SW 6 km/h 6 km/h 46 % 0 mm
20:00 -7.2 °C -9.7 °C 34462.7 hPa Calm     75 % 0 mm
20:01 -3.7 °C -10.7 °C 34361.1 hPa SW 15 km/h 15 km/h 46 % 0 mm
20:06 -3.9 °C -10.8 °C 34361.1 hPa ESE 6 km/h 6 km/h 46 % 0 mm
20:10 -7.3 °C -9.7 °C 34462.7 hPa Calm     76 % 0 mm
20:11 -3.9 °C -10.7 °C 34361.1 hPa SW 7.6 km/h 7.6 km/h 47 % 0 mm
20:16 -4.1 °C -10.4 °C 34361.1 hPa NE 6.3 km/h 7.6 km/h 49 % 0 mm
20:20 -7.3 °C -9.6 °C 34462.7 hPa Calm   2.6 km/h 77 % 0 mm
20:21 -4.5 °C -10.4 °C 34361.1 hPa ENE 15.3 km/h 15.3 km/h 51 % 0 mm
20:26 -4.7 °C -10.2 °C 34361.1 hPa East 17.9 km/h 17.9 km/h 54 % 0 mm
20:30 -7.4 °C -9.7 °C 34462.7 hPa West 2.6 km/h 5.1 km/h 77 % 0 mm
20:31 -4.8 °C -9.9 °C 34361.1 hPa ENE 11.9 km/h 11.9 km/h 56 % 0 mm
20:36 -4.9 °C -9.9 °C 34395 hPa ESE 9 km/h 9 km/h 57 % 0 mm
20:40 -7.5 °C -9.8 °C 34462.7 hPa Calm   5.1 km/h 77 % 0 mm
20:41 -5 °C -9.8 °C 34395 hPa ESE 17.9 km/h 17.9 km/h 58 % 0 mm
20:46 -5.2 °C -9.7 °C 34395 hPa ENE 15 km/h 15 km/h 60 % 0 mm
20:50 -7.5 °C -9.7 °C 34462.7 hPa Calm   2.6 km/h 78 % 0 mm
20:51 -5.2 °C -9.8 °C 34395 hPa East 15 km/h 15 km/h 60 % 0 mm
20:56 -5.3 °C -9.7 °C 34395 hPa East 11.9 km/h 11.9 km/h 61 % 0 mm
21:00 -7.6 °C -9.9 °C 34462.7 hPa East 2.6 km/h 2.6 km/h 77 % 0 mm
21:01 -5.3 °C -9.7 °C 34395 hPa ESE 15 km/h 15 km/h 61 % 0 mm
21:06 -5.4 °C -9.6 °C 34395 hPa East 9 km/h 9 km/h 62 % 0 mm
21:10 -7.8 °C -10.1 °C 34462.7 hPa SSW 5.1 km/h 5.1 km/h 77 % 0 mm
21:11 -5.4 °C -9.7 °C 34395 hPa SE 11.9 km/h 11.9 km/h 62 % 0 mm
21:16 -5.4 °C -9.7 °C 34395 hPa ENE 9.8 km/h 9.8 km/h 62 % 0 mm
21:20 -7.8 °C -10 °C 34462.7 hPa WSW 2.6 km/h 2.6 km/h 78 % 0 mm
21:21 -5.6 °C -9.7 °C 34395 hPa East 9 km/h 9.3 km/h 63 % 0 mm
21:26 -5.6 °C -9.6 °C 34395 hPa ENE 9.3 km/h 9.3 km/h 64 % 0 mm
21:30 -7.9 °C -9.9 °C 34428.8 hPa Calm     79 % 0 mm
21:31 -5.7 °C -9.5 °C 34395 hPa ESE 9 km/h 9 km/h 65 % 0 mm
21:36 -5.7 °C -9.4 °C 34395 hPa ENE 9 km/h 9 km/h 66 % 0 mm
21:40 -7.9 °C -9.9 °C 34462.7 hPa Calm     79 % 0 mm
21:41 -5.8 °C -9.4 °C 34395 hPa NNE 11.1 km/h 11.1 km/h 66 % 0 mm
21:46 -5.8 °C -9.4 °C 34395 hPa ESE 9 km/h 9 km/h 67 % 0 mm
21:50 -7.9 °C -9.9 °C 34462.7 hPa Calm   2.6 km/h 79 % 0 mm
21:51 -5.9 °C -9.4 °C 34361.1 hPa NE 11.9 km/h 11.9 km/h 67 % 0 mm
21:56 -5.9 °C -9.5 °C 34361.1 hPa East 10.3 km/h 10.3 km/h 67 % 0 mm
22:00 -8 °C -10.1 °C 34462.7 hPa Calm   2.6 km/h 79 % 0 mm
22:01 -6 °C -9.4 °C 34361.1 hPa ENE 8 km/h 8 km/h 68 % 0 mm
22:06 -6 °C -9.4 °C 34395 hPa NE 6.8 km/h 6.8 km/h 68 % 0 mm
22:10 -8.1 °C -10.2 °C 34462.7 hPa WSW 5.1 km/h 5.1 km/h 78 % 0 mm
22:11 -6.1 °C -9.3 °C 34395 hPa ENE 11.9 km/h 11.9 km/h 69 % 0 mm
22:16 -6.1 °C -9.3 °C 34395 hPa NNE 6.3 km/h 6.3 km/h 69 % 0 mm
22:20 -8.2 °C -10.2 °C 34462.7 hPa Calm   2.6 km/h 79 % 0 mm
22:21 -6.1 °C -9.4 °C 34395 hPa NNE 7.6 km/h 7.6 km/h 69 % 0 mm
22:26 -6.2 °C -9.4 °C 34395 hPa NNE 6.3 km/h 6.3 km/h 69 % 0 mm
22:30 -8.3 °C -10.4 °C 34462.7 hPa Calm   5.1 km/h 79 % 0 mm
22:31 -6.2 °C -9.4 °C 34395 hPa NNW 9 km/h 9 km/h 69 % 0 mm
22:36 -6.2 °C -9.4 °C 34428.8 hPa North 6 km/h 6 km/h 70 % 0 mm
22:40 -8.4 °C -10.3 °C 34462.7 hPa SW 5.1 km/h 5.1 km/h 80 % 0 mm
22:41 -6.2 °C -9.4 °C 34428.8 hPa NE 6 km/h 6 km/h 70 % 0 mm
22:46 -6.3 °C -9.4 °C 34428.8 hPa NNE 6.3 km/h 6.3 km/h 70 % 0 mm
22:50 -8.6 °C -10.5 °C 34462.7 hPa WSW 5.1 km/h 7.7 km/h 80 % 0 mm
22:51 -6.3 °C -9.5 °C 34462.7 hPa NNE 6.3 km/h 6.8 km/h 70 % 0 mm
22:56 -6.3 °C -9.3 °C 34462.7 hPa NNE 9 km/h 9 km/h 71 % 0 mm
23:00 -8.6 °C -10.4 °C 34462.7 hPa Calm   2.6 km/h 81 % 0 mm
23:01 -6.4 °C -9.4 °C 34462.7 hPa NNE 11.9 km/h 11.9 km/h 71 % 0 mm
23:06 -6.4 °C -9.3 °C 34462.7 hPa NE 9 km/h 9 km/h 72 % 0 mm
23:10 -8.7 °C -10.5 °C 34462.7 hPa SW 2.6 km/h 5.1 km/h 81 % 0 mm
23:11 -6.4 °C -9.3 °C 34462.7 hPa NE 7.6 km/h 7.6 km/h 72 % 0 mm
23:16 -6.5 °C -9.4 °C 34462.7 hPa NNE 9 km/h 9 km/h 72 % 0 mm
23:20 -8.7 °C -10.5 °C 34462.7 hPa SW 2.6 km/h 5.1 km/h 81 % 0 mm
23:21 -6.5 °C -9.4 °C 34462.7 hPa NNE 6 km/h 6.3 km/h 72 % 0 mm
23:26 -6.6 °C -9.4 °C 34462.7 hPa NNE 6 km/h 6 km/h 72 % 0 mm
23:30 -8.6 °C -10.3 °C 34462.7 hPa Calm     82 % 0 mm
23:31 -6.6 °C -9.4 °C 34462.7 hPa NE 7.6 km/h 7.6 km/h 72 % 0 mm
23:36 -6.6 °C -9.5 °C 34462.7 hPa North 6.8 km/h 6.8 km/h 72 % 0 mm
23:40 -8.5 °C -10.2 °C 34462.7 hPa Calm   2.6 km/h 82 % 0 mm
23:41 -6.6 °C -9.5 °C 34462.7 hPa NE 9 km/h 9 km/h 72 % 0 mm
23:46 -6.7 °C -9.6 °C 34462.7 hPa NNE 3.1 km/h   72 % 0 mm
23:50 -8.4 °C -10.2 °C 34462.7 hPa Calm     82 % 0 mm
23:51 -6.7 °C -9.5 °C 34462.7 hPa NNE 2.3 km/h   73 % 0 mm
23:56 -6.8 °C -9.6 °C 34462.7 hPa North 6 km/h 6 km/h 73 % 0 mm
Meteo Sesrovires
Elogis d' Weather Underground - 1.75 mb

Guio original per  Jim McMurry - jmcmurry@mwt.net Adaptat per a la plantilla per  Wim van der Kuil - Leuven-Template.eu

Trobareu la nostra informacio del temps tambe a:

Weather Underground

AWEKAS